createdAt,value
2023-01-07T00:01:14.708Z,1.90
2023-01-07T00:03:42.624Z,2.10
2023-01-07T00:06:14.008Z,1.33
2023-01-07T00:08:44.071Z,1.30
2023-01-07T00:11:13.939Z,1.83
2023-01-07T00:13:41.652Z,1.37
2023-01-07T00:16:11.634Z,6.13
2023-01-07T00:18:40.297Z,2.47
2023-01-07T00:21:12.148Z,1.63
2023-01-07T00:23:41.486Z,1.53
2023-01-07T00:26:10.663Z,1.40
2023-01-07T00:28:40.470Z,2.10
2023-01-07T00:31:11.413Z,1.77
2023-01-07T00:33:46.889Z,1.33
2023-01-07T00:36:16.012Z,1.23
2023-01-07T00:38:43.813Z,1.40
2023-01-07T00:41:11.890Z,1.70
2023-01-07T00:43:39.707Z,1.90
2023-01-07T00:46:07.886Z,2.63
2023-01-07T00:48:35.677Z,1.83
2023-01-07T00:51:03.435Z,2.57
2023-01-07T00:53:32.754Z,2.60
2023-01-07T00:56:00.526Z,1.87
2023-01-07T00:58:28.236Z,1.93
2023-01-07T01:00:57.782Z,1.67
2023-01-07T01:03:27.194Z,2.13
2023-01-07T01:05:55.822Z,1.30
2023-01-07T01:08:23.867Z,2.70
2023-01-07T01:10:52.971Z,3.13
2023-01-07T01:13:20.959Z,2.37
2023-01-07T01:15:50.095Z,1.93
2023-01-07T01:18:18.029Z,1.83
2023-01-07T01:20:46.057Z,1.60
2023-01-07T01:23:13.909Z,1.20
2023-01-07T01:25:41.624Z,1.47
2023-01-07T01:28:10.826Z,0.97
2023-01-07T01:30:38.504Z,3.37
2023-01-07T01:33:06.612Z,1.33
2023-01-07T01:35:34.352Z,2.07
2023-01-07T01:38:02.127Z,3.67
2023-01-07T01:40:33.521Z,3.67
2023-01-07T01:43:02.362Z,2.30
2023-01-07T01:45:32.063Z,2.90
2023-01-07T01:48:05.635Z,2.07
2023-01-07T01:50:38.007Z,2.33
2023-01-07T01:53:09.026Z,2.80
2023-01-07T01:55:45.925Z,2.57
2023-01-07T01:58:19.542Z,3.03
2023-01-07T02:00:50.067Z,1.53
2023-01-07T02:03:20.150Z,2.03
2023-01-07T02:05:49.011Z,2.60
2023-01-07T02:08:21.923Z,2.83
2023-01-07T02:10:56.072Z,4.70
2023-01-07T02:13:48.496Z,6.27
2023-01-07T02:16:23.764Z,2.60
2023-01-07T02:19:13.650Z,2.83
2023-01-07T02:21:51.964Z,3.50
2023-01-07T02:24:54.674Z,2.60
2023-01-07T02:27:48.992Z,2.23
2023-01-07T02:30:47.117Z,2.07
2023-01-07T02:33:43.065Z,2.67
2023-01-07T02:36:24.752Z,3.93
2023-01-07T02:39:05.497Z,3.80
2023-01-07T02:41:45.553Z,2.97
2023-01-07T02:44:21.273Z,4.13
2023-01-07T02:46:53.455Z,4.50
2023-01-07T02:49:24.309Z,4.10
2023-01-07T02:51:52.864Z,5.90
2023-01-07T02:54:23.900Z,5.83
2023-01-07T02:57:18.210Z,3.97
2023-01-07T03:00:02.120Z,4.97
2023-01-07T03:02:49.394Z,3.43
2023-01-07T03:05:42.984Z,3.03
2023-01-07T03:08:24.532Z,6.43
2023-01-07T03:10:59.891Z,3.53
2023-01-07T03:13:38.175Z,3.30
2023-01-07T03:16:11.168Z,3.67
2023-01-07T03:18:43.734Z,3.63
2023-01-07T03:21:15.843Z,3.90
2023-01-07T03:23:49.024Z,4.63
2023-01-07T03:26:21.762Z,7.67
2023-01-07T03:28:52.260Z,7.67
2023-01-07T03:31:22.661Z,6.13
2023-01-07T03:33:55.830Z,3.43
2023-01-07T03:36:29.482Z,3.43
2023-01-07T03:38:57.750Z,2.10
2023-01-07T03:41:44.136Z,3.47
2023-01-07T03:44:14.050Z,3.07
2023-01-07T03:46:41.930Z,2.73
2023-01-07T03:49:09.737Z,5.50
2023-01-07T03:51:39.639Z,2.97
2023-01-07T03:54:07.599Z,3.70
2023-01-07T03:56:35.330Z,2.97
2023-01-07T03:59:03.160Z,2.97
2023-01-07T04:01:31.785Z,3.40
2023-01-07T04:04:03.009Z,2.13
2023-01-07T04:06:31.344Z,4.30
2023-01-07T04:09:01.051Z,4.80
2023-01-07T04:11:29.228Z,5.50
2023-01-07T04:14:00.636Z,3.30
2023-01-07T04:16:29.807Z,4.87
2023-01-07T04:18:57.953Z,2.80
2023-01-07T04:21:25.870Z,2.60
2023-01-07T04:23:53.793Z,3.00
2023-01-07T04:26:23.643Z,2.53
2023-01-07T04:28:51.836Z,2.87
2023-01-07T04:31:19.912Z,4.17
2023-01-07T04:33:47.769Z,3.47
2023-01-07T04:36:15.886Z,3.10
2023-01-07T04:38:44.940Z,3.30
2023-01-07T04:41:12.892Z,3.77
2023-01-07T04:43:42.233Z,4.37
2023-01-07T04:46:10.161Z,3.23
2023-01-07T04:48:38.510Z,3.30
2023-01-07T04:51:06.793Z,2.57
2023-01-07T04:53:34.666Z,2.50
2023-01-07T04:56:05.657Z,4.63
2023-01-07T04:58:33.848Z,3.27
2023-01-07T05:01:04.487Z,2.57
2023-01-07T05:03:35.433Z,3.87
2023-01-07T05:06:04.884Z,3.17
2023-01-07T05:08:33.981Z,3.47
2023-01-07T05:11:02.069Z,2.50
2023-01-07T05:13:31.594Z,2.90
2023-01-07T05:16:01.283Z,2.77
2023-01-07T05:18:31.321Z,3.47
2023-01-07T05:20:59.672Z,2.83
2023-01-07T05:23:27.615Z,3.43
2023-01-07T05:25:55.517Z,3.73
2023-01-07T05:28:23.438Z,4.27
2023-01-07T05:30:51.212Z,7.30
2023-01-07T05:33:19.102Z,3.80
2023-01-07T05:35:49.942Z,3.27
2023-01-07T05:38:18.997Z,3.83
2023-01-07T05:40:49.778Z,2.63
2023-01-07T05:43:21.562Z,2.93
2023-01-07T05:45:51.177Z,3.40
2023-01-07T05:48:18.995Z,7.87
2023-01-07T05:50:46.771Z,5.47
2023-01-07T05:53:15.871Z,3.90
2023-01-07T05:55:43.692Z,6.13
2023-01-07T05:58:11.502Z,4.63
2023-01-07T06:00:39.392Z,3.03
2023-01-07T06:03:07.463Z,4.80
2023-01-07T06:05:35.398Z,4.63
2023-01-07T06:08:03.228Z,5.40
2023-01-07T06:10:32.397Z,4.87
2023-01-07T06:13:00.137Z,5.33
2023-01-07T06:15:27.932Z,4.83
2023-01-07T06:17:55.623Z,6.60
2023-01-07T06:20:23.515Z,6.30
2023-01-07T06:22:51.325Z,7.20
2023-01-07T06:25:21.868Z,6.37
2023-01-07T06:27:51.036Z,5.67
2023-01-07T06:30:18.998Z,5.80
2023-01-07T06:32:46.765Z,4.67
2023-01-07T06:35:14.751Z,4.00
2023-01-07T06:37:42.574Z,4.30
2023-01-07T06:40:12.007Z,2.53
2023-01-07T06:42:39.753Z,2.43
2023-01-07T06:45:10.184Z,2.57
2023-01-07T06:47:37.988Z,2.73
2023-01-07T06:50:06.293Z,1.57
2023-01-07T06:52:34.455Z,1.60
2023-01-07T06:55:02.243Z,3.93
2023-01-07T06:57:30.119Z,2.33
2023-01-07T06:59:57.863Z,4.23
2023-01-07T07:02:28.761Z,3.40
2023-01-07T07:04:56.704Z,3.37
2023-01-07T07:07:25.384Z,2.43
2023-01-07T07:09:53.204Z,3.50
2023-01-07T07:12:21.010Z,1.10
2023-01-07T07:14:48.740Z,3.57
2023-01-07T07:17:16.817Z,4.23
2023-01-07T07:19:45.903Z,2.03
2023-01-07T07:22:13.625Z,3.63
2023-01-07T07:24:41.379Z,1.43
2023-01-07T07:27:09.094Z,1.57
2023-01-07T07:29:36.822Z,2.37
2023-01-07T07:32:04.900Z,1.40
2023-01-07T07:34:34.659Z,3.97
2023-01-07T07:37:05.034Z,2.37
2023-01-07T07:39:33.727Z,1.30
2023-01-07T07:42:03.757Z,1.60
2023-01-07T07:44:31.556Z,3.97
2023-01-07T07:46:59.391Z,2.27
2023-01-07T07:49:27.196Z,4.50
2023-01-07T07:51:55.102Z,2.40
2023-01-07T07:54:24.483Z,2.50
2023-01-07T07:56:52.299Z,3.30
2023-01-07T07:59:20.061Z,2.83
2023-01-07T08:01:47.969Z,3.80
2023-01-07T08:04:15.939Z,4.17
2023-01-07T08:06:43.813Z,1.93
2023-01-07T08:09:11.593Z,3.17
2023-01-07T08:11:40.696Z,2.90
2023-01-07T08:14:08.462Z,2.10
2023-01-07T08:16:36.188Z,1.83
2023-01-07T08:19:04.191Z,3.13
2023-01-07T08:21:31.948Z,2.03
2023-01-07T08:23:59.687Z,1.73
2023-01-07T08:26:27.541Z,2.47
2023-01-07T08:28:56.676Z,2.70
2023-01-07T08:31:24.517Z,2.70
2023-01-07T08:33:52.302Z,3.10
2023-01-07T08:36:23.717Z,2.50
2023-01-07T08:38:52.786Z,2.33
2023-01-07T08:41:21.081Z,2.40
2023-01-07T08:43:52.187Z,3.87
2023-01-07T08:46:21.552Z,2.40
2023-01-07T08:48:49.436Z,1.97
2023-01-07T08:51:17.141Z,1.50
2023-01-07T08:53:44.890Z,3.47
2023-01-07T08:56:12.617Z,2.10
2023-01-07T08:58:40.469Z,4.10
2023-01-07T09:01:08.681Z,1.87
2023-01-07T09:03:39.127Z,2.47
2023-01-07T09:06:07.486Z,2.00
2023-01-07T09:08:35.537Z,3.40
2023-01-07T09:11:03.457Z,4.50
2023-01-07T09:13:31.471Z,2.07
2023-01-07T09:16:00.049Z,2.30
2023-01-07T09:18:27.811Z,2.57
2023-01-07T09:20:56.926Z,1.50
2023-01-07T09:23:24.687Z,2.30
2023-01-07T09:25:52.469Z,2.37
2023-01-07T09:28:20.233Z,2.00
2023-01-07T09:30:47.911Z,2.40
2023-01-07T09:33:15.799Z,2.83
2023-01-07T09:35:43.563Z,2.40
2023-01-07T09:38:12.653Z,3.30
2023-01-07T09:40:42.804Z,2.90
2023-01-07T09:43:17.065Z,4.67
2023-01-07T09:45:49.065Z,2.57
2023-01-07T09:48:24.513Z,2.80
2023-01-07T09:50:56.559Z,5.17
2023-01-07T09:53:29.056Z,3.63
2023-01-07T09:56:10.436Z,3.60
2023-01-07T09:58:42.814Z,3.90
2023-01-07T10:01:25.617Z,4.37
2023-01-07T10:04:03.886Z,3.30
2023-01-07T10:06:43.879Z,4.20
2023-01-07T10:09:27.874Z,4.90
2023-01-07T10:12:04.546Z,3.27
2023-01-07T10:14:48.311Z,4.30
2023-01-07T10:17:29.578Z,3.23
2023-01-07T10:20:03.565Z,4.77
2023-01-07T10:22:35.947Z,3.90
2023-01-07T10:25:14.882Z,5.83
2023-01-07T10:27:46.256Z,4.00
2023-01-07T10:30:19.417Z,6.30
2023-01-07T10:32:49.363Z,4.57
2023-01-07T10:35:20.690Z,4.83
2023-01-07T10:37:48.520Z,5.50
2023-01-07T10:40:27.828Z,3.50
2023-01-07T10:43:02.071Z,3.93
2023-01-07T10:45:48.117Z,4.57
2023-01-07T10:48:30.779Z,4.20
2023-01-07T10:51:09.283Z,3.97
2023-01-07T10:53:49.409Z,4.00
2023-01-07T10:56:25.019Z,4.17
2023-01-07T10:58:53.099Z,4.33
2023-01-07T11:01:26.765Z,5.47
2023-01-07T11:03:56.989Z,4.40
2023-01-07T11:06:35.760Z,4.77
2023-01-07T11:09:07.459Z,2.53
2023-01-07T11:11:39.320Z,3.50
2023-01-07T11:14:13.212Z,3.20
2023-01-07T11:16:48.676Z,3.07
2023-01-07T11:19:17.350Z,2.27
2023-01-07T11:21:48.662Z,2.67
2023-01-07T11:24:39.217Z,2.93
2023-01-07T11:27:15.426Z,4.20
2023-01-07T11:29:47.837Z,4.90
2023-01-07T11:32:22.983Z,3.00
2023-01-07T11:34:59.553Z,3.53
2023-01-07T11:37:35.925Z,4.57
2023-01-07T11:40:17.429Z,4.00
2023-01-07T11:42:50.390Z,2.60
2023-01-07T11:45:20.243Z,3.07
2023-01-07T11:47:55.139Z,2.93
2023-01-07T11:50:25.838Z,2.90
2023-01-07T11:53:02.739Z,3.80
2023-01-07T11:55:31.351Z,3.83
2023-01-07T11:58:29.781Z,3.70
2023-01-07T12:01:03.957Z,4.03
2023-01-07T12:03:31.878Z,2.20
2023-01-07T12:06:06.840Z,3.30
2023-01-07T12:08:34.956Z,2.40
2023-01-07T12:11:09.248Z,2.57
2023-01-07T12:13:48.007Z,2.60
2023-01-07T12:16:16.465Z,3.07
2023-01-07T12:19:02.507Z,3.00
2023-01-07T12:21:45.764Z,2.03
2023-01-07T12:24:29.805Z,3.87
2023-01-07T12:27:07.089Z,5.57
2023-01-07T12:29:46.755Z,3.03
2023-01-07T12:32:28.338Z,3.07
2023-01-07T12:35:14.572Z,3.00
2023-01-07T12:37:47.447Z,2.60
2023-01-07T12:40:31.936Z,2.07
2023-01-07T12:43:04.926Z,2.80
2023-01-07T12:45:40.919Z,2.57
2023-01-07T12:48:17.408Z,1.90
2023-01-07T12:50:48.604Z,2.13
2023-01-07T12:53:22.058Z,2.83
2023-01-07T12:55:54.971Z,2.00
2023-01-07T12:58:33.776Z,2.60
2023-01-07T13:01:13.735Z,2.33
2023-01-07T13:03:48.275Z,3.07
2023-01-07T13:06:21.047Z,3.73
2023-01-07T13:08:56.584Z,1.57
2023-01-07T13:11:42.512Z,1.80
2023-01-07T13:14:19.889Z,1.50
2023-01-07T13:16:49.302Z,1.87
2023-01-07T13:19:17.251Z,1.50
2023-01-07T13:21:48.138Z,2.00
2023-01-07T13:24:56.044Z,2.13
2023-01-07T13:27:28.378Z,2.10
2023-01-07T13:30:05.507Z,1.60
2023-01-07T13:32:50.199Z,1.60
2023-01-07T13:35:29.572Z,1.40
2023-01-07T13:38:16.381Z,1.83
2023-01-07T13:41:11.738Z,1.93
2023-01-07T13:44:12.774Z,1.40
2023-01-07T13:46:44.046Z,1.90
2023-01-07T13:49:26.409Z,1.70
2023-01-07T13:51:55.306Z,1.10
2023-01-07T13:54:57.250Z,1.67
2023-01-07T13:57:41.998Z,1.50
2023-01-07T14:00:38.266Z,1.40
2023-01-07T14:03:22.391Z,1.60
2023-01-07T14:06:11.805Z,2.33
2023-01-07T14:08:39.797Z,1.97
2023-01-07T14:11:08.031Z,2.63
2023-01-07T14:13:43.492Z,2.23
2023-01-07T14:16:19.436Z,1.77
2023-01-07T14:19:08.233Z,1.40
2023-01-07T14:21:50.175Z,2.53
2023-01-07T14:24:42.098Z,2.40
2023-01-07T14:27:27.067Z,2.43
2023-01-07T14:30:02.906Z,1.67
2023-01-07T14:32:39.259Z,1.70
2023-01-07T14:35:21.117Z,1.60
2023-01-07T14:37:50.352Z,2.20
2023-01-07T14:40:50.312Z,1.77
2023-01-07T14:44:03.759Z,2.03
2023-01-07T14:46:46.526Z,1.97
2023-01-07T14:49:54.010Z,2.37
2023-01-07T14:52:39.368Z,2.60
2023-01-07T14:55:28.872Z,1.80
2023-01-07T14:58:13.092Z,1.97
2023-01-07T15:01:01.114Z,2.47
2023-01-07T15:03:50.932Z,1.80
2023-01-07T15:06:27.693Z,1.80
2023-01-07T15:09:21.576Z,1.97
2023-01-07T15:12:11.504Z,3.13
2023-01-07T15:15:02.870Z,3.27
2023-01-07T15:17:31.110Z,1.77
2023-01-07T15:19:59.847Z,3.53
2023-01-07T15:22:51.105Z,2.47
2023-01-07T15:25:29.758Z,2.00
2023-01-07T15:28:07.743Z,2.67
2023-01-07T15:30:46.010Z,2.90
2023-01-07T15:33:33.766Z,3.30
2023-01-07T15:36:04.946Z,2.10
2023-01-07T15:38:37.896Z,2.10
2023-01-07T15:41:06.248Z,2.10
2023-01-07T15:43:35.939Z,3.30
2023-01-07T15:46:05.961Z,2.77
2023-01-07T15:48:33.766Z,3.20
2023-01-07T15:51:01.595Z,2.63
2023-01-07T15:53:30.396Z,2.57
2023-01-07T15:56:03.136Z,2.10
2023-01-07T15:58:40.481Z,2.83
2023-01-07T16:01:12.924Z,3.23
2023-01-07T16:03:41.003Z,3.90
2023-01-07T16:06:34.168Z,4.03
2023-01-07T16:09:05.136Z,3.70
2023-01-07T16:11:32.966Z,5.83
2023-01-07T16:14:04.059Z,4.43
2023-01-07T16:16:33.478Z,4.83
2023-01-07T16:19:02.931Z,3.57
2023-01-07T16:21:36.171Z,4.47
2023-01-07T16:24:04.185Z,4.83
2023-01-07T16:26:40.057Z,3.63
2023-01-07T16:29:12.264Z,4.70
2023-01-07T16:31:40.128Z,6.70
2023-01-07T16:34:39.540Z,5.33
2023-01-07T16:37:13.355Z,6.57
2023-01-07T16:39:47.341Z,3.80
2023-01-07T16:42:23.323Z,5.17
2023-01-07T16:45:23.572Z,4.43
2023-01-07T16:48:19.378Z,6.43
2023-01-07T16:50:48.070Z,4.50
2023-01-07T16:53:28.037Z,4.83
2023-01-07T16:56:10.474Z,3.23
2023-01-07T16:58:42.568Z,4.73
2023-01-07T17:01:12.544Z,3.43
2023-01-07T17:03:49.079Z,3.80
2023-01-07T17:06:25.445Z,4.47
2023-01-07T17:08:56.523Z,6.60
2023-01-07T17:11:29.550Z,7.40
2023-01-07T17:13:57.308Z,5.83
2023-01-07T17:16:30.960Z,5.87
2023-01-07T17:19:20.691Z,4.80
2023-01-07T17:21:48.534Z,3.80
2023-01-07T17:24:42.173Z,4.57
2023-01-07T17:27:21.900Z,4.17
2023-01-07T17:29:50.032Z,5.07
2023-01-07T17:32:19.186Z,3.63
2023-01-07T17:34:46.987Z,4.47
2023-01-07T17:37:16.835Z,5.67
2023-01-07T17:39:45.214Z,5.07
2023-01-07T17:42:42.006Z,4.90
2023-01-07T17:45:16.014Z,4.03
2023-01-07T17:47:45.486Z,3.60
2023-01-07T17:50:15.169Z,3.93
2023-01-07T17:52:45.772Z,4.30
2023-01-07T17:55:19.781Z,4.47
2023-01-07T17:57:47.551Z,4.90
2023-01-07T18:00:18.611Z,4.33
2023-01-07T18:02:48.140Z,4.97
2023-01-07T18:05:18.208Z,5.03
2023-01-07T18:07:46.058Z,5.73
2023-01-07T18:10:15.430Z,4.53
2023-01-07T18:12:43.670Z,5.30
2023-01-07T18:15:19.380Z,6.47
2023-01-07T18:17:48.480Z,4.20
2023-01-07T18:20:17.138Z,7.43
2023-01-07T18:22:45.228Z,8.00
2023-01-07T18:25:17.870Z,6.07
2023-01-07T18:27:45.945Z,4.67
2023-01-07T18:30:16.676Z,3.23
2023-01-07T18:32:44.931Z,5.40
2023-01-07T18:35:14.646Z,7.07
2023-01-07T18:37:42.371Z,4.40
2023-01-07T18:40:11.156Z,5.20
2023-01-07T18:42:38.918Z,5.90
2023-01-07T18:45:08.642Z,4.70
2023-01-07T18:47:36.507Z,4.67
2023-01-07T18:50:04.881Z,4.67
2023-01-07T18:52:34.002Z,5.60
2023-01-07T18:55:01.787Z,5.57
2023-01-07T18:57:29.523Z,4.60
2023-01-07T18:59:57.390Z,5.70
2023-01-07T19:02:25.084Z,5.73
2023-01-07T19:04:52.857Z,5.33
2023-01-07T19:07:21.676Z,5.70
2023-01-07T19:09:51.024Z,5.33
2023-01-07T19:12:18.720Z,5.30
2023-01-07T19:14:46.580Z,5.90
2023-01-07T19:17:14.414Z,6.10
2023-01-07T19:19:48.325Z,4.40
2023-01-07T19:22:16.901Z,4.50
2023-01-07T19:24:45.152Z,4.33
2023-01-07T19:27:14.659Z,4.57
2023-01-07T19:29:42.427Z,4.20
2023-01-07T19:32:10.172Z,4.50
2023-01-07T19:34:37.947Z,4.17
2023-01-07T19:37:05.955Z,4.03
2023-01-07T19:39:34.068Z,4.20
2023-01-07T19:42:01.820Z,4.50
2023-01-07T19:44:30.978Z,4.37
2023-01-07T19:46:58.860Z,4.97
2023-01-07T19:49:29.328Z,7.17
2023-01-07T19:51:57.093Z,4.10
2023-01-07T19:54:24.961Z,4.23
2023-01-07T19:56:52.755Z,4.13
2023-01-07T19:59:20.472Z,4.77
2023-01-07T20:01:50.621Z,5.17
2023-01-07T20:04:18.541Z,4.50
2023-01-07T20:06:47.078Z,5.30
2023-01-07T20:09:14.910Z,4.87
2023-01-07T20:11:43.940Z,5.57
2023-01-07T20:14:12.733Z,7.13
2023-01-07T20:16:41.695Z,4.63
2023-01-07T20:19:15.492Z,4.53
2023-01-07T20:21:43.345Z,4.10
2023-01-07T20:24:13.443Z,5.20
2023-01-07T20:26:41.657Z,4.30
2023-01-07T20:29:09.462Z,4.43
2023-01-07T20:31:37.744Z,4.53
2023-01-07T20:34:05.649Z,3.80
2023-01-07T20:36:35.017Z,3.93
2023-01-07T20:39:05.995Z,4.20
2023-01-07T20:41:35.099Z,3.63
2023-01-07T20:44:05.220Z,3.53
2023-01-07T20:46:34.602Z,3.93
2023-01-07T20:49:02.411Z,3.77
2023-01-07T20:51:30.267Z,3.90
2023-01-07T20:53:59.773Z,3.50
2023-01-07T20:56:31.832Z,5.17
2023-01-07T20:58:59.932Z,3.97
2023-01-07T21:01:28.339Z,3.97
2023-01-07T21:03:57.528Z,3.40
2023-01-07T21:06:25.729Z,3.60
2023-01-07T21:08:53.607Z,6.80
2023-01-07T21:11:24.600Z,7.40
2023-01-07T21:13:55.933Z,6.20
2023-01-07T21:16:24.064Z,3.23
2023-01-07T21:18:51.902Z,3.10
2023-01-07T21:21:23.912Z,4.13
2023-01-07T21:23:52.325Z,3.70
2023-01-07T21:26:22.461Z,3.90
2023-01-07T21:28:55.766Z,4.60
2023-01-07T21:31:24.298Z,5.70
2023-01-07T21:33:55.099Z,5.73
2023-01-07T21:36:23.489Z,4.03
2023-01-07T21:38:55.067Z,3.93
2023-01-07T21:41:25.542Z,5.03
2023-01-07T21:43:53.322Z,3.70
2023-01-07T21:46:22.635Z,3.70
2023-01-07T21:48:51.738Z,5.30
2023-01-07T21:51:22.135Z,3.97
2023-01-07T21:53:51.921Z,5.53
2023-01-07T21:56:20.253Z,5.97
2023-01-07T21:58:49.791Z,10.20
2023-01-07T22:01:18.233Z,6.43
2023-01-07T22:03:49.044Z,4.00
2023-01-07T22:06:19.753Z,4.40
2023-01-07T22:08:48.354Z,2.93
2023-01-07T22:11:17.289Z,4.17
2023-01-07T22:13:45.151Z,2.67
2023-01-07T22:16:14.258Z,2.70
2023-01-07T22:18:42.017Z,2.83
2023-01-07T22:21:09.782Z,2.87
2023-01-07T22:23:40.849Z,2.50
2023-01-07T22:26:09.166Z,2.77
2023-01-07T22:28:38.242Z,4.83
2023-01-07T22:31:12.542Z,3.80
2023-01-07T22:33:41.747Z,3.27
2023-01-07T22:36:10.616Z,2.70
2023-01-07T22:38:39.890Z,2.70
2023-01-07T22:41:09.297Z,3.40
2023-01-07T22:43:37.988Z,3.13
2023-01-07T22:46:10.643Z,3.50
2023-01-07T22:48:40.029Z,2.77
2023-01-07T22:51:14.992Z,2.30
2023-01-07T22:53:44.675Z,3.30
2023-01-07T22:56:13.821Z,2.50
2023-01-07T22:58:41.586Z,3.53
2023-01-07T23:01:13.703Z,2.60
2023-01-07T23:03:42.601Z,3.10
2023-01-07T23:06:13.809Z,2.60
2023-01-07T23:08:42.083Z,2.03
2023-01-07T23:11:10.617Z,2.47
2023-01-07T23:13:39.179Z,2.43
2023-01-07T23:16:07.933Z,2.43
2023-01-07T23:18:35.988Z,2.00
2023-01-07T23:21:05.713Z,1.97
2023-01-07T23:23:34.768Z,2.10
2023-01-07T23:26:02.499Z,2.90
2023-01-07T23:28:30.278Z,2.10
2023-01-07T23:31:01.496Z,1.93
2023-01-07T23:33:29.246Z,2.40
2023-01-07T23:36:02.392Z,3.17
2023-01-07T23:38:30.215Z,2.00
2023-01-07T23:41:02.290Z,1.53
2023-01-07T23:43:30.164Z,2.13
2023-01-07T23:45:59.043Z,1.93
2023-01-07T23:48:27.084Z,1.80
2023-01-07T23:50:55.376Z,1.57
2023-01-07T23:53:23.772Z,2.30
2023-01-07T23:55:52.500Z,1.40
2023-01-07T23:58:21.741Z,2.30
